Time;durP1;ratioP1;P1;durP2;ratioP2;P2;SDS_P1;SDS_P2;PMS_P1;PMS_P2;Temp;Humidity;BMP_temperature;BMP_pressure;BME280_temperature;BME280_humidity;BME280_pressure;Samples;Min_cycle;Max_cycle;Signal;HPM_P1;HPM_P2
2020/12/21 00:01:44;;;;;;;27.83;15.07;;;;;;;2.57;100.00;101482.94;4967671;28;20038;-91
2020/12/21 00:04:10;;;;;;;21.63;13.50;;;;;;;2.55;100.00;101472.47;4971568;28;20102;-92
2020/12/21 00:06:36;;;;;;;23.47;13.43;;;;;;;2.54;100.00;101481.13;4997909;28;20141;-92
2020/12/21 00:09:04;;;;;;;21.50;13.07;;;;;;;2.53;100.00;101477.66;4984837;28;20076;-93
2020/12/21 00:11:34;;;;;;;19.77;11.37;;;;;;;2.52;100.00;101483.72;4980484;28;20045;-92
2020/12/21 00:14:01;;;;;;;26.07;14.17;;;;;;;2.51;100.00;101481.03;4981797;28;20076;-93
2020/12/21 00:16:37;;;;;;;21.10;12.27;;;;;;;2.51;100.00;101486.25;4980575;28;20060;-92
2020/12/21 00:19:05;;;;;;;21.67;13.27;;;;;;;2.51;100.00;101483.66;4981683;28;20062;-92
2020/12/21 00:21:31;;;;;;;26.60;14.03;;;;;;;2.50;100.00;101492.31;4974701;28;20060;-91
2020/12/21 00:24:00;;;;;;;27.03;14.73;;;;;;;2.56;100.00;101476.84;4997579;28;20053;-92
2020/12/21 00:26:27;;;;;;;25.63;13.90;;;;;;;2.51;100.00;101475.81;4997455;28;20042;-92
2020/12/21 00:28:54;;;;;;;24.23;13.63;;;;;;;2.49;100.00;101482.72;4978635;28;20137;-91
2020/12/21 00:31:25;;;;;;;24.17;14.30;;;;;;;2.52;100.00;101488.03;4981705;28;20044;-91
2020/12/21 00:33:52;;;;;;;24.00;13.17;;;;;;;2.50;100.00;101489.72;5000368;28;20136;-92
2020/12/21 00:36:19;;;;;;;23.33;14.27;;;;;;;2.50;100.00;101502.75;4966794;28;20069;-92
2020/12/21 00:38:46;;;;;;;25.10;13.70;;;;;;;2.49;100.00;101487.94;4986596;28;20050;-92
2020/12/21 00:41:14;;;;;;;26.23;14.77;;;;;;;2.49;100.00;101483.63;4984453;28;20495;-92
2020/12/21 00:43:42;;;;;;;21.17;13.17;;;;;;;2.46;100.00;101487.88;4970305;28;20121;-93
2020/12/21 00:46:23;;;;;;;23.87;13.50;;;;;;;2.42;100.00;101484.31;4977636;28;20054;-93
2020/12/21 00:48:51;;;;;;;24.10;14.30;;;;;;;2.40;100.00;101483.38;4997120;28;20071;-90
2020/12/21 00:51:18;;;;;;;22.43;13.17;;;;;;;2.38;100.00;101487.69;4989038;28;20065;-92
2020/12/21 00:53:45;;;;;;;22.27;13.20;;;;;;;2.36;100.00;101496.31;4960561;28;20080;-91
2020/12/21 00:56:11;;;;;;;24.70;13.57;;;;;;;2.35;100.00;101487.59;4975853;28;20046;-91
2020/12/21 00:58:40;;;;;;;21.47;13.00;;;;;;;2.33;100.00;101493.63;4981209;28;20470;-91
2020/12/21 01:01:09;;;;;;;21.13;12.90;;;;;;;2.32;100.00;101494.47;4976646;28;20045;-91
2020/12/21 01:03:53;;;;;;;22.53;13.70;;;;;;;2.35;100.00;101502.34;4967518;28;20315;-91
2020/12/21 01:06:19;;;;;;;21.13;12.87;;;;;;;2.38;100.00;101512.88;4959798;28;20488;-91
2020/12/21 01:08:53;;;;;;;27.58;15.73;;;;;;;2.43;100.00;101513.88;4997494;28;20065;-91
2020/12/21 01:11:19;;;;;;;31.77;17.00;;;;;;;2.48;100.00;101515.75;4986764;28;20041;-92
2020/12/21 01:13:47;;;;;;;30.60;15.87;;;;;;;2.44;100.00;101511.31;4980211;28;20502;-92
2020/12/21 01:16:14;;;;;;;30.37;15.50;;;;;;;2.43;100.00;101498.22;4973367;28;20042;-91
2020/12/21 01:18:41;;;;;;;28.10;15.27;;;;;;;2.42;100.00;101512.09;4963920;28;20118;-92
2020/12/21 01:21:08;;;;;;;26.17;15.17;;;;;;;2.43;100.00;101517.34;4991598;28;20475;-91
2020/12/21 01:23:34;;;;;;;25.53;13.93;;;;;;;2.40;100.00;101514.69;4976107;23;20499;-68
2020/12/21 01:26:00;;;;;;;28.90;15.83;;;;;;;2.42;100.00;101512.09;5002754;28;20041;-70
2020/12/21 01:28:28;;;;;;;22.77;14.23;;;;;;;2.41;100.00;101510.34;5016573;28;20052;-70
2020/12/21 01:30:54;;;;;;;26.37;15.47;;;;;;;2.39;100.00;101506.81;4999920;28;20140;-71
2020/12/21 01:33:21;;;;;;;26.77;14.63;;;;;;;2.36;100.00;101505.03;4984393;28;20052;-71
2020/12/21 01:35:47;;;;;;;31.13;17.97;;;;;;;2.39;100.00;101504.22;5006151;28;20057;-71
2020/12/21 01:38:14;;;;;;;26.43;14.57;;;;;;;2.39;100.00;101505.09;5010063;28;20052;-70
2020/12/21 01:40:41;;;;;;;27.17;14.33;;;;;;;2.40;100.00;101501.63;4996557;28;20044;-70
2020/12/21 01:43:07;;;;;;;26.20;13.90;;;;;;;2.41;100.00;101506.00;4993184;28;20107;-71
2020/12/21 01:45:33;;;;;;;27.57;15.13;;;;;;;2.40;100.00;101512.06;5026214;28;20045;-71
2020/12/21 01:47:59;;;;;;;28.20;14.30;;;;;;;2.41;100.00;101505.13;4997613;28;20402;-70
2020/12/21 01:50:26;;;;;;;30.30;15.27;;;;;;;2.46;100.00;101511.34;4977606;28;20398;-70
2020/12/21 01:52:53;;;;;;;29.27;15.57;;;;;;;2.45;100.00;101507.88;5029601;28;20037;-71
2020/12/21 01:55:20;;;;;;;25.70;14.60;;;;;;;2.44;100.00;101500.00;5008421;28;20053;-70
2020/12/21 01:57:46;;;;;;;25.93;13.17;;;;;;;2.44;100.00;101503.50;5030543;28;20037;-70
2020/12/21 02:00:12;;;;;;;29.43;16.17;;;;;;;2.47;100.00;101500.06;5007985;28;20055;-70
2020/12/21 02:02:43;;;;;;;31.63;16.93;;;;;;;2.50;100.00;101501.03;5013252;28;20048;-70
2020/12/21 02:05:10;;;;;;;28.90;15.43;;;;;;;2.46;100.00;101500.94;4986364;28;20034;-70
2020/12/21 02:07:37;;;;;;;35.10;19.23;;;;;;;2.46;100.00;101493.97;5015100;28;20172;-71
2020/12/21 02:10:03;;;;;;;28.53;16.77;;;;;;;2.47;100.00;101505.28;5013264;28;20042;-70
2020/12/21 02:12:30;;;;;;;28.70;16.10;;;;;;;2.45;100.00;101502.66;5009916;28;20041;-71
2020/12/21 02:14:56;;;;;;;32.90;18.73;;;;;;;2.43;100.00;101500.81;5027950;28;20033;-70
2020/12/21 02:17:22;;;;;;;30.23;16.77;;;;;;;2.45;100.00;101510.47;5026682;28;20041;-70
2020/12/21 02:19:48;;;;;;;30.77;16.17;;;;;;;2.49;100.00;101504.47;5009676;28;20033;-70
2020/12/21 02:22:14;;;;;;;31.47;17.07;;;;;;;2.50;100.00;101503.63;5028344;28;20053;-71
2020/12/21 02:24:40;;;;;;;30.87;16.47;;;;;;;2.52;100.00;101509.81;5025980;28;20037;-71
2020/12/21 02:27:07;;;;;;;29.90;16.00;;;;;;;2.49;100.00;101506.22;5010904;28;20053;-71
2020/12/21 02:29:33;;;;;;;31.63;16.80;;;;;;;2.64;100.00;101511.81;5007192;28;20041;-71
2020/12/21 02:32:00;;;;;;;32.30;17.50;;;;;;;2.56;100.00;101513.34;5024327;28;20065;-71
2020/12/21 02:34:27;;;;;;;31.80;16.77;;;;;;;2.55;100.00;101508.97;5006368;28;20041;-71
2020/12/21 02:36:54;;;;;;;32.77;16.50;;;;;;;2.56;100.00;101502.91;5027000;28;20052;-71
2020/12/21 02:39:22;;;;;;;29.00;15.30;;;;;;;2.61;100.00;101508.28;5024195;28;20029;-71
2020/12/21 02:41:48;;;;;;;30.60;15.63;;;;;;;2.55;100.00;101503.78;5024754;28;20045;-71
2020/12/21 02:44:14;;;;;;;29.67;16.57;;;;;;;2.56;100.00;101510.75;5008242;28;20045;-71
2020/12/21 02:46:42;;;;;;;30.93;16.10;;;;;;;2.55;100.00;101516.81;5025297;28;20441;-71
2020/12/21 02:49:09;;;;;;;30.53;16.30;;;;;;;2.56;100.00;101513.34;5005942;28;20042;-71
2020/12/21 02:51:35;;;;;;;33.80;17.37;;;;;;;2.57;100.00;101512.50;5022761;28;20034;-70
2020/12/21 02:54:01;;;;;;;34.47;16.73;;;;;;;2.63;100.00;101532.66;5023521;28;20089;-71
2020/12/21 02:56:27;;;;;;;34.67;18.17;;;;;;;2.63;100.00;101525.72;5025863;28;20064;-71
2020/12/21 02:58:54;;;;;;;34.30;17.13;;;;;;;2.65;100.00;101530.97;5023636;28;20040;-71
2020/12/21 03:01:20;;;;;;;28.93;15.77;;;;;;;2.68;100.00;101525.81;4997896;28;20071;-71
2020/12/21 03:03:46;;;;;;;33.03;17.13;;;;;;;2.68;100.00;101526.69;5022884;28;20843;-71
2020/12/21 03:06:12;;;;;;;31.67;16.90;;;;;;;2.71;100.00;101524.19;5018244;28;20073;-71
2020/12/21 03:08:38;;;;;;;28.63;16.33;;;;;;;2.74;100.00;101525.97;5007756;28;20041;-72
2020/12/21 03:11:08;;;;;;;28.03;15.93;;;;;;;2.78;100.00;101527.84;5019361;28;20742;-71
2020/12/21 03:13:34;;;;;;;28.53;15.67;;;;;;;2.86;100.00;101528.00;5012621;28;20067;-71
2020/12/21 03:16:00;;;;;;;29.70;16.70;;;;;;;2.88;100.00;101531.56;5026068;28;20041;-71
2020/12/21 03:18:26;;;;;;;30.80;16.43;;;;;;;2.85;100.00;101524.50;5018728;28;20572;-71
2020/12/21 03:20:53;;;;;;;32.37;16.87;;;;;;;2.86;100.00;101526.31;5018741;28;20148;-71
2020/12/21 03:23:19;;;;;;;26.10;15.03;;;;;;;2.88;100.00;101524.59;5026097;28;20061;-71
2020/12/21 03:25:45;;;;;;;31.47;17.07;;;;;;;2.87;100.00;101528.06;4999897;28;20144;-71
2020/12/21 03:28:11;;;;;;;30.93;16.83;;;;;;;2.84;100.00;101527.97;5005051;28;20065;-71
2020/12/21 03:30:37;;;;;;;32.50;17.27;;;;;;;2.81;100.00;101527.91;5023757;28;20057;-71
2020/12/21 03:33:03;;;;;;;31.77;18.10;;;;;;;2.82;100.00;101522.72;5001476;28;20041;-71
2020/12/21 03:35:30;;;;;;;30.60;16.60;;;;;;;2.84;100.00;101525.34;5021462;28;20036;-71
2020/12/21 03:37:56;;;;;;;31.23;16.40;;;;;;;2.88;100.00;101529.81;5020955;28;20132;-71
2020/12/21 03:40:22;;;;;;;31.10;16.10;;;;;;;2.87;100.00;101519.34;5015207;28;20099;-71
2020/12/21 03:42:48;;;;;;;31.73;17.80;;;;;;;2.83;100.00;101519.25;5020793;28;20122;-71
2020/12/21 03:45:14;;;;;;;29.67;17.13;;;;;;;2.82;100.00;101514.00;5003587;28;20041;-71
2020/12/21 03:47:41;;;;;;;33.37;18.00;;;;;;;2.80;100.00;101524.41;5025847;28;20099;-71
2020/12/21 03:50:08;;;;;;;29.07;16.17;;;;;;;2.80;100.00;101518.31;4991989;28;20071;-71
2020/12/21 03:52:34;;;;;;;33.13;20.10;;;;;;;2.85;100.00;101513.19;5008817;28;20065;-71
2020/12/21 03:55:00;;;;;;;29.50;16.57;;;;;;;2.83;100.00;101506.22;5000120;28;20038;-71
2020/12/21 03:57:26;;;;;;;29.57;15.73;;;;;;;2.85;100.00;101505.34;5001725;28;20037;-71
2020/12/21 03:59:52;;;;;;;38.33;19.00;;;;;;;2.84;100.00;101507.09;5021491;28;20040;-71
2020/12/21 04:02:18;;;;;;;35.23;17.50;;;;;;;2.87;100.00;101506.31;5017751;28;20037;-71
2020/12/21 04:04:44;;;;;;;28.30;16.97;;;;;;;2.86;100.00;101504.50;5012467;28;20079;-71
2020/12/21 04:07:10;;;;;;;28.97;17.30;;;;;;;2.86;100.00;101505.44;5026421;28;20064;-71
2020/12/21 04:09:36;;;;;;;34.63;19.47;;;;;;;2.92;100.00;101507.28;5002607;28;20060;-71
2020/12/21 04:12:04;;;;;;;35.63;18.53;;;;;;;2.91;100.00;101501.19;5007347;28;20049;-71
2020/12/21 04:14:30;;;;;;;35.67;18.50;;;;;;;2.99;100.00;101509.19;5023435;28;20071;-71
2020/12/21 04:16:56;;;;;;;36.50;19.67;;;;;;;2.99;100.00;101509.19;5018655;28;20131;-71
2020/12/21 04:19:22;;;;;;;38.00;19.90;;;;;;;3.00;100.00;101510.97;5015458;28;20069;-71
2020/12/21 04:21:48;;;;;;;35.13;18.73;;;;;;;2.98;100.00;101508.31;5023744;28;20550;-71
2020/12/21 04:24:14;;;;;;;35.00;17.87;;;;;;;3.01;100.00;101505.75;5001222;28;20034;-71
2020/12/21 04:26:40;;;;;;;39.63;20.37;;;;;;;3.00;100.00;101501.41;5023766;28;20045;-72
2020/12/21 04:29:07;;;;;;;35.27;19.37;;;;;;;2.99;100.00;101504.84;5021711;28;20742;-71
2020/12/21 04:31:33;;;;;;;34.87;19.57;;;;;;;3.03;100.00;101505.84;5000469;28;20061;-71
2020/12/21 04:34:00;;;;;;;33.17;18.73;;;;;;;3.02;100.00;101502.31;5025881;28;20115;-71
2020/12/21 04:36:26;;;;;;;35.73;20.27;;;;;;;3.06;100.00;101503.28;5025855;28;20042;-71
2020/12/21 04:38:53;;;;;;;39.83;19.23;;;;;;;3.10;100.00;101505.09;5025965;28;20038;-71
2020/12/21 04:41:19;;;;;;;37.97;19.80;;;;;;;3.12;100.00;101503.44;5008223;28;20403;-71
2020/12/21 04:43:46;;;;;;;34.50;19.37;;;;;;;3.11;100.00;101509.47;5024925;28;20069;-71
2020/12/21 04:46:12;;;;;;;38.50;20.93;;;;;;;3.15;100.00;101508.72;4989284;28;20073;-71
2020/12/21 04:48:42;;;;;;;37.07;19.73;;;;;;;3.15;100.00;101510.44;5008771;28;20128;-71
2020/12/21 04:51:08;;;;;;;31.00;17.67;;;;;;;3.16;100.00;101510.47;5013366;28;20461;-71
2020/12/21 04:53:38;;;;;;;43.07;21.87;;;;;;;3.27;100.00;101508.97;5025335;28;20045;-71
2020/12/21 04:56:04;;;;;;;36.33;20.27;;;;;;;3.31;100.00;101504.72;5021573;28;20041;-71
2020/12/21 04:58:31;;;;;;;35.33;20.07;;;;;;;3.26;100.00;101507.22;5023523;28;20041;-71
2020/12/21 05:00:57;;;;;;;39.03;20.70;;;;;;;3.27;100.00;101502.88;5021421;28;20041;-71
2020/12/21 05:03:23;;;;;;;39.57;22.47;;;;;;;3.29;100.00;101509.94;5024588;28;20049;-71
2020/12/21 05:05:49;;;;;;;37.97;19.63;;;;;;;3.33;100.00;101508.25;5011182;28;20087;-71
2020/12/21 05:08:17;;;;;;;40.80;21.50;;;;;;;3.34;100.00;101507.41;5014081;28;20567;-71
2020/12/21 05:11:01;;;;;;;37.27;19.50;;;;;;;3.34;100.00;101510.00;5023941;28;20033;-71
2020/12/21 05:13:29;;;;;;;42.17;20.45;;;;;;;3.35;100.00;101510.03;5026529;28;20566;-71
2020/12/21 05:15:56;;;;;;;39.77;20.43;;;;;;;3.37;100.00;101510.09;5028351;28;20121;-71
2020/12/21 05:18:28;;;;;;;35.47;18.70;;;;;;;3.34;100.00;101500.44;5011900;28;20049;-71
2020/12/21 05:20:56;;;;;;;37.33;18.97;;;;;;;3.34;100.00;101497.81;5029701;28;22043;-71
2020/12/21 05:23:22;;;;;;;39.53;21.43;;;;;;;3.38;100.00;101498.81;5025689;28;20033;-71
2020/12/21 05:26:04;;;;;;;40.70;21.07;;;;;;;3.42;100.00;101491.91;5025759;28;20045;-72
2020/12/21 05:28:32;;;;;;;37.27;19.83;;;;;;;3.36;100.00;101490.03;5027665;28;20461;-71
2020/12/21 05:31:01;;;;;;;34.13;18.63;;;;;;;3.30;100.00;101488.19;5026632;28;20065;-71
2020/12/21 05:33:29;;;;;;;37.50;19.87;;;;;;;3.29;100.00;101499.47;5019162;28;20483;-71
2020/12/21 05:35:56;;;;;;;36.87;20.57;;;;;;;3.31;100.00;101495.16;5028871;28;20044;-71
2020/12/21 05:38:25;;;;;;;35.37;19.80;;;;;;;3.31;100.00;101489.94;5010937;28;20053;-71
2020/12/21 05:40:52;;;;;;;41.60;19.90;;;;;;;3.29;100.00;101496.00;4993720;28;20037;-71
2020/12/21 05:43:29;;;;;;;38.53;19.00;;;;;;;3.29;100.00;101496.88;5007953;28;20072;-71
2020/12/21 05:46:03;;;;;;;36.00;20.00;;;;;;;3.20;100.00;101494.03;5001381;28;20045;-71
2020/12/21 05:48:35;;;;;;;36.00;19.13;;;;;;;3.15;100.00;101479.13;5012529;28;20049;-71
2020/12/21 05:51:03;;;;;;;32.83;18.00;;;;;;;3.10;100.00;101490.31;5009883;28;20041;-72
2020/12/21 05:53:57;;;;;;;37.03;19.73;;;;;;;3.08;100.00;101485.91;5024451;28;20037;-71
2020/12/21 05:56:25;;;;;;;35.17;19.20;;;;;;;3.06;100.00;101491.09;5007478;28;20065;-71
2020/12/21 05:58:52;;;;;;;39.97;21.43;;;;;;;3.13;100.00;101492.13;5018201;28;20125;-71
2020/12/21 06:01:19;;;;;;;37.43;19.10;;;;;;;3.17;100.00;101493.97;5002625;28;20655;-71
2020/12/21 06:03:53;;;;;;;42.93;21.33;;;;;;;3.19;100.00;101494.00;5006048;28;20502;-71
2020/12/21 06:06:27;;;;;;;38.38;20.38;;;;;;;3.20;100.00;101498.38;5010499;28;20509;-71
2020/12/21 06:08:58;;;;;;;39.97;22.80;;;;;;;3.23;100.00;101501.06;5002803;28;20125;-71
2020/12/21 06:11:33;;;;;;;45.80;23.27;;;;;;;3.27;100.00;101500.25;5011378;28;20441;-71
2020/12/21 06:14:08;;;;;;;42.10;21.57;;;;;;;3.28;100.00;101508.16;5017419;28;20046;-71
2020/12/21 06:16:38;;;;;;;41.47;20.63;;;;;;;3.32;100.00;101516.94;5005538;28;20034;-71
2020/12/21 06:19:06;;;;;;;36.73;19.97;;;;;;;3.34;100.00;101510.00;5026999;28;20498;-71
2020/12/21 06:21:38;;;;;;;40.40;20.47;;;;;;;3.36;100.00;101504.00;5025860;28;20033;-71
2020/12/21 06:24:15;;;;;;;43.57;21.53;;;;;;;3.39;100.00;101508.41;4995335;28;20399;-71
2020/12/21 06:26:41;;;;;;;41.67;20.63;;;;;;;3.43;100.00;101512.81;5009204;28;20049;-72
2020/12/21 06:29:15;;;;;;;42.60;21.57;;;;;;;3.45;100.00;101505.00;5027431;28;20514;-72
2020/12/21 06:31:49;;;;;;;40.30;20.70;;;;;;;3.45;100.00;101507.63;5021663;28;20057;-71
2020/12/21 06:34:17;;;;;;;42.53;22.52;;;;;;;3.43;100.00;101519.78;5022766;28;20119;-71
2020/12/21 06:36:46;;;;;;;45.67;21.87;;;;;;;3.41;100.00;101513.66;5003775;28;20041;-71
2020/12/21 06:39:24;;;;;;;39.77;20.90;;;;;;;3.47;100.00;101514.66;5022028;28;20122;-71
2020/12/21 06:42:05;;;;;;;36.47;20.27;;;;;;;3.47;100.00;101513.78;5022865;28;20033;-71
2020/12/21 06:44:32;;;;;;;43.47;21.67;;;;;;;3.48;100.00;101513.81;5019128;28;20069;-71
2020/12/21 06:46:59;;;;;;;38.07;20.07;;;;;;;3.47;100.00;101519.00;5025328;28;20096;-71
2020/12/21 06:49:26;;;;;;;37.27;19.10;;;;;;;3.49;100.00;101525.16;5024559;28;20486;-71
2020/12/21 06:51:52;;;;;;;43.90;22.07;;;;;;;3.55;100.00;101520.94;5024750;28;20053;-71
2020/12/21 06:54:19;;;;;;;42.00;21.40;;;;;;;3.53;100.00;101524.34;5009904;28;20096;-71
2020/12/21 06:56:46;;;;;;;37.67;18.53;;;;;;;3.49;100.00;101523.41;4987584;28;20045;-72
2020/12/21 06:59:17;;;;;;;38.17;20.13;;;;;;;3.49;100.00;101517.31;5019090;28;20446;-71
2020/12/21 07:01:48;;;;;;;41.37;22.20;;;;;;;3.51;100.00;101524.31;4991367;28;20110;-71
2020/12/21 07:04:16;;;;;;;43.03;21.97;;;;;;;3.50;100.00;101519.94;5020114;28;20044;-71
2020/12/21 07:06:43;;;;;;;41.27;20.87;;;;;;;3.53;100.00;101520.03;5025319;28;20050;-71
2020/12/21 07:09:10;;;;;;;39.03;20.13;;;;;;;3.53;100.00;101521.75;5019577;28;20733;-71
2020/12/21 07:11:38;;;;;;;39.63;21.07;;;;;;;3.55;100.00;101526.19;5007060;28;20045;-71
2020/12/21 07:14:05;;;;;;;39.40;21.50;;;;;;;3.55;100.00;101531.41;4975403;28;20132;-73
2020/12/21 07:16:31;;;;;;;40.80;20.53;;;;;;;3.51;100.00;101533.91;5014643;28;20064;-74
2020/12/21 07:18:57;;;;;;;34.23;19.07;;;;;;;3.49;100.00;101538.22;5008454;28;20038;-74
2020/12/21 07:21:24;;;;;;;39.47;21.60;;;;;;;3.47;100.00;101542.53;5007246;28;20043;-74
2020/12/21 07:23:50;;;;;;;42.23;21.50;;;;;;;3.49;100.00;101533.88;5021542;28;20065;-74
2020/12/21 07:26:16;;;;;;;41.10;20.97;;;;;;;3.50;100.00;101546.06;5029657;22;20466;-75
2020/12/21 07:28:47;;;;;;;37.53;21.57;;;;;;;3.53;100.00;101558.31;5002927;28;20776;-74
2020/12/21 07:31:16;;;;;;;36.27;20.40;;;;;;;3.55;100.00;101552.31;5022818;28;20599;-75
2020/12/21 07:33:56;;;;;;;39.20;21.30;;;;;;;3.55;100.00;101561.88;4991804;28;20038;-74
2020/12/21 07:36:38;;;;;;;41.27;21.33;;;;;;;3.62;100.00;101571.63;4987770;28;20045;-73
2020/12/21 07:39:11;;;;;;;39.83;21.33;;;;;;;3.60;100.00;101561.09;4990259;28;20041;-74
2020/12/21 07:41:48;;;;;;;38.10;21.48;;;;;;;3.59;100.00;101568.91;5007412;28;20447;-74
2020/12/21 07:44:16;;;;;;;42.77;20.67;;;;;;;3.62;100.00;101563.78;5005697;28;20049;-74
2020/12/21 07:46:56;;;;;;;38.00;21.17;;;;;;;3.62;100.00;101566.38;5011160;28;20073;-74
2020/12/21 07:49:23;;;;;;;39.10;21.43;;;;;;;3.66;100.00;101571.69;5014741;28;20461;-74
2020/12/21 07:51:49;;;;;;;37.93;20.50;;;;;;;3.66;100.00;101573.44;5014718;28;20552;-75
2020/12/21 07:54:15;;;;;;;36.03;19.40;;;;;;;3.70;100.00;101576.97;5005964;28;20045;-73
2020/12/21 07:56:41;;;;;;;35.40;19.07;;;;;;;3.67;100.00;101583.03;4991251;28;20046;-73
2020/12/21 07:59:15;;;;;;;36.70;19.63;;;;;;;3.65;100.00;101580.41;5005676;28;20037;-74
2020/12/21 08:01:43;;;;;;;41.88;21.23;;;;;;;3.67;100.00;101585.66;4988639;28;20041;-73
2020/12/21 08:04:17;;;;;;;36.13;18.90;;;;;;;3.70;100.00;101584.81;5006024;28;20604;-74
2020/12/21 08:06:45;;;;;;;33.60;19.43;;;;;;;3.70;100.00;101583.13;5002786;28;20049;-74
2020/12/21 08:09:12;;;;;;;34.40;18.40;;;;;;;3.68;100.00;101588.28;4990536;28;20111;-73
2020/12/21 08:11:38;;;;;;;38.17;19.63;;;;;;;3.66;100.00;101586.50;4984296;28;20114;-74
2020/12/21 08:14:07;;;;;;;33.00;19.40;;;;;;;3.71;100.00;101587.50;5015531;28;20441;-75
2020/12/21 08:16:33;;;;;;;38.33;19.33;;;;;;;3.73;100.00;101592.75;5004265;28;20062;-74
2020/12/21 08:19:00;;;;;;;33.47;18.87;;;;;;;3.76;100.00;101592.81;4999448;28;20277;-74
2020/12/21 08:21:30;;;;;;;31.17;17.93;;;;;;;3.78;100.00;101591.97;4991900;28;20033;-74
2020/12/21 08:23:58;;;;;;;33.87;19.57;;;;;;;3.80;100.00;101598.16;4987062;28;20605;-72
2020/12/21 08:26:25;;;;;;;35.23;18.90;;;;;;;3.79;100.00;101587.66;5021298;28;20124;-72
2020/12/21 08:28:52;;;;;;;35.57;19.87;;;;;;;3.84;100.00;101588.63;4999288;28;20033;-72
2020/12/21 08:31:20;;;;;;;30.70;17.33;;;;;;;3.90;100.00;101596.63;5015130;28;20034;-72
2020/12/21 08:33:56;;;;;;;33.77;19.30;;;;;;;3.91;100.00;101599.25;5001545;28;20461;-72
2020/12/21 08:36:47;;;;;;;30.73;18.03;;;;;;;3.91;100.00;101599.25;5016097;28;20045;-72
2020/12/21 08:39:20;;;;;;;28.83;16.53;;;;;;;3.85;100.00;101599.13;5004037;28;20042;-72
2020/12/21 08:41:52;;;;;;;30.23;16.17;;;;;;;3.81;100.00;101597.31;5026069;28;20749;-72
2020/12/21 08:44:26;;;;;;;29.03;16.63;;;;;;;3.79;100.00;101599.00;4989088;28;20049;-73
2020/12/21 08:46:53;;;;;;;32.10;16.50;;;;;;;3.76;100.00;101596.31;5023448;28;20080;-72
2020/12/21 08:49:25;;;;;;;29.73;16.77;;;;;;;3.75;100.00;101597.16;5006286;28;20037;-72
2020/12/21 08:51:51;;;;;;;28.57;15.07;;;;;;;3.79;100.00;101598.13;5009619;28;20422;-72
2020/12/21 08:54:18;;;;;;;29.80;17.47;;;;;;;3.82;100.00;101592.94;5004373;28;20037;-73
2020/12/21 08:56:48;;;;;;;29.33;17.60;;;;;;;3.81;100.00;101607.75;5004696;28;20191;-72
2020/12/21 08:59:15;;;;;;;27.23;16.13;;;;;;;3.81;100.00;101602.53;4990818;28;20051;-72
2020/12/21 09:01:42;;;;;;;30.40;15.80;;;;;;;3.85;100.00;101604.34;4993610;28;20421;-72
2020/12/21 09:04:08;;;;;;;25.00;14.97;;;;;;;3.82;100.00;101592.94;4993721;28;20588;-72
2020/12/21 09:06:34;;;;;;;27.80;15.17;;;;;;;3.81;100.00;101602.53;5029116;28;20042;-72
2020/12/21 09:09:00;;;;;;;27.80;16.47;;;;;;;3.86;100.00;101603.50;5026322;28;20069;-72
2020/12/21 09:11:26;;;;;;;29.60;14.93;;;;;;;4.08;100.00;101606.59;5004522;28;20153;-72
2020/12/21 09:13:53;;;;;;;26.60;15.63;;;;;;;4.31;100.00;101604.44;5007137;28;20033;-72
2020/12/21 09:16:25;;;;;;;26.53;14.53;;;;;;;4.47;100.00;101604.78;4987430;28;20046;-72
2020/12/21 09:18:53;;;;;;;23.50;14.13;;;;;;;4.52;100.00;101600.50;5016036;28;20041;-72
2020/12/21 09:21:23;;;;;;;22.73;13.17;;;;;;;4.66;100.00;101607.75;4976189;28;20045;-72
2020/12/21 09:23:57;;;;;;;20.03;13.13;;;;;;;4.78;100.00;101597.47;4991385;28;20402;-72
2020/12/21 09:26:26;;;;;;;21.80;12.18;;;;;;;5.27;100.00;101598.34;5009357;28;20137;-72
2020/12/21 09:28:54;;;;;;;18.47;11.73;;;;;;;5.33;100.00;101601.06;4974941;28;20045;-73
2020/12/21 09:31:22;;;;;;;24.87;13.80;;;;;;;5.70;100.00;101597.25;5008072;28;20099;-72
2020/12/21 09:33:49;;;;;;;17.90;11.13;;;;;;;5.85;100.00;101597.47;5005998;28;20140;-72
2020/12/21 09:36:18;;;;;;;19.37;11.87;;;;;;;5.57;100.00;101590.97;5009297;28;20068;-72
2020/12/21 09:38:45;;;;;;;18.67;11.93;;;;;;;5.37;100.00;101589.75;4994849;28;20429;-72
2020/12/21 09:41:16;;;;;;;18.70;10.97;;;;;;;5.57;100.00;101590.97;5004396;28;20425;-73
2020/12/21 09:43:44;;;;;;;17.60;10.70;;;;;;;5.73;100.00;101585.94;5001519;28;20087;-72
2020/12/21 09:46:15;;;;;;;18.27;10.37;;;;;;;5.70;100.00;101585.88;5011502;28;20041;-73
2020/12/21 09:48:41;;;;;;;19.27;11.50;;;;;;;5.57;100.00;101588.34;5010482;28;20498;-72
2020/12/21 09:51:07;;;;;;;17.93;10.70;;;;;;;5.75;100.00;101576.34;5006891;28;20030;-72
2020/12/21 09:53:33;;;;;;;18.53;9.83;;;;;;;5.80;100.00;101574.66;4987196;28;20214;-72
2020/12/21 09:55:59;;;;;;;16.60;9.80;;;;;;;5.62;100.00;101580.53;5002211;28;20092;-73
2020/12/21 09:58:29;;;;;;;15.23;10.40;;;;;;;5.62;100.00;101576.16;5009424;28;20416;-72
2020/12/21 10:00:55;;;;;;;19.80;10.07;;;;;;;5.66;100.00;101571.84;5010865;28;20088;-72
2020/12/21 10:03:21;;;;;;;15.53;9.53;;;;;;;5.72;100.00;101568.41;4986534;28;20986;-73
2020/12/21 10:05:47;;;;;;;20.40;10.57;;;;;;;5.87;100.00;101569.50;5004045;28;20088;-72
2020/12/21 10:08:14;;;;;;;15.50;9.50;;;;;;;6.02;100.00;101568.88;4994944;28;20041;-75
2020/12/21 10:10:41;;;;;;;16.90;9.83;;;;;;;6.13;100.00;101562.00;5001981;28;20040;-73
2020/12/21 10:13:07;;;;;;;15.60;9.87;;;;;;;6.14;100.00;101569.03;5025852;28;20038;-72
2020/12/21 10:15:33;;;;;;;17.47;9.47;;;;;;;6.15;100.00;101556.81;4999782;28;20050;-72
2020/12/21 10:17:59;;;;;;;15.77;9.20;;;;;;;6.18;100.00;101555.09;5008201;28;20049;-73
2020/12/21 10:20:25;;;;;;;14.77;10.03;;;;;;;6.13;100.00;101551.50;5024566;28;20568;-74
2020/12/21 10:22:52;;;;;;;14.50;8.93;;;;;;;6.27;100.00;101556.94;4987405;28;20046;-74
2020/12/21 10:25:18;;;;;;;18.77;10.70;;;;;;;6.28;100.00;101555.19;4990885;28;20779;-73
2020/12/21 10:27:44;;;;;;;13.30;9.03;;;;;;;6.26;100.00;101555.16;4996197;28;20116;-75
2020/12/21 10:30:10;;;;;;;18.43;10.03;;;;;;;6.32;100.00;101549.13;5008311;28;20087;-73
2020/12/21 10:32:36;;;;;;;16.90;10.10;;;;;;;6.46;99.56;101544.88;5004371;28;20073;-73
2020/12/21 10:35:03;;;;;;;15.57;9.27;;;;;;;6.75;98.61;101545.19;4989428;28;20120;-73
2020/12/21 10:37:29;;;;;;;14.33;9.27;;;;;;;7.10;95.48;101542.84;5005211;28;20060;-72
2020/12/21 10:39:55;;;;;;;13.07;8.40;;;;;;;7.24;95.14;101542.97;5007934;28;20441;-73
2020/12/21 10:42:22;;;;;;;11.57;8.03;;;;;;;7.63;92.83;101542.31;4997447;28;20045;-73
2020/12/21 10:44:48;;;;;;;12.13;8.55;;;;;;;7.47;92.56;101543.97;5020156;28;20104;-73
2020/12/21 10:47:14;;;;;;;13.20;8.00;;;;;;;7.18;93.68;101543.78;5021162;28;20061;-73
2020/12/21 10:49:41;;;;;;;12.23;8.27;;;;;;;6.86;94.83;101553.16;5004608;28;20033;-72
2020/12/21 10:52:07;;;;;;;13.77;9.80;;;;;;;6.93;96.66;101549.72;5014053;28;20088;-73
2020/12/21 10:54:33;;;;;;;15.75;9.13;;;;;;;7.57;93.29;101542.31;5016824;28;20518;-73
2020/12/21 10:57:02;;;;;;;11.75;7.25;;;;;;;8.07;90.32;101539.03;5023563;28;20073;-73
2020/12/21 10:59:29;;;;;;;12.73;8.65;;;;;;;8.35;85.43;101530.38;5022488;28;20037;-74
2020/12/21 11:01:55;;;;;;;11.80;7.55;;;;;;;8.50;86.47;101533.94;5023773;28;20111;-73
2020/12/21 11:04:21;;;;;;;12.63;7.75;;;;;;;8.47;85.58;101529.53;5022305;28;20037;-74
2020/12/21 11:06:47;;;;;;;13.02;8.45;;;;;;;8.59;86.61;101524.31;5007721;28;20131;-73
2020/12/21 11:09:13;;;;;;;13.75;8.88;;;;;;;8.92;83.74;101518.19;4992246;28;20072;-73
2020/12/21 11:11:41;;;;;;;12.32;7.53;;;;;;;9.70;84.07;101514.53;5000129;28;20088;-73
2020/12/21 11:14:08;;;;;;;13.30;7.75;;;;;;;10.41;80.68;101511.56;5007064;28;20041;-74